Time,TemperatureF,DewpointF,PressureIn,WindDirection,WindDirectionDegrees,WindSpeedMPH,WindSpeedGustMPH,Humidity,HourlyPrecipIn,Conditions,Clouds,dailyrainin,SoftwareType,DateUTC
2013-02-11 00:20:00,11.8,6.0,30.21,NNW,331,0.0,12.0,77,0.00,,,0.00,Wunderground v.1.15,2013-02-11 05:20:00,
2013-02-11 00:40:00,11.3,5.5,30.21,NNW,340,0.0,12.0,77,0.00,,,0.00,Wunderground v.1.15,2013-02-11 05:40:00,
2013-02-11 01:10:00,10.4,4.9,30.21,NNW,340,0.0,12.0,78,0.00,,,0.00,Wunderground v.1.15,2013-02-11 06:10:00,
2013-02-11 01:20:00,9.8,4.3,30.21,NNW,340,0.0,12.0,78,0.00,,,0.00,Wunderground v.1.15,2013-02-11 06:20:00,
2013-02-11 01:40:00,9.2,4.0,30.20,NNW,340,0.0,12.0,79,0.00,,,0.00,Wunderground v.1.15,2013-02-11 06:40:00,
2013-02-11 02:10:00,7.6,3.0,30.19,NNW,340,0.0,12.0,81,0.00,,,0.00,Wunderground v.1.15,2013-02-11 07:10:00,
2013-02-11 02:30:00,7.0,2.7,30.17,NNW,340,0.0,12.0,82,0.00,,,0.00,Wunderground v.1.15,2013-02-11 07:30:00,
2013-02-11 02:40:00,6.9,2.6,30.18,NNW,340,0.0,12.0,82,0.00,,,0.00,Wunderground v.1.15,2013-02-11 07:40:00,
2013-02-11 03:10:00,6.3,2.2,30.17,NNW,340,0.0,12.0,83,0.00,,,0.00,Wunderground v.1.15,2013-02-11 08:10:00,
2013-02-11 04:11:00,5.8,2.0,30.15,NNW,340,0.0,12.0,84,0.00,,,0.00,Wunderground v.1.15,2013-02-11 09:11:00,
2013-02-11 04:20:00,5.9,2.1,30.15,NNW,340,0.0,12.0,84,0.00,,,0.00,Wunderground v.1.15,2013-02-11 09:20:00,
2013-02-11 04:31:00,6.1,2.6,30.15,NNW,340,0.0,12.0,85,0.00,,,0.00,Wunderground v.1.15,2013-02-11 09:31:00,
2013-02-11 04:50:00,6.3,2.5,30.14,NNW,340,0.0,12.0,84,0.00,,,0.00,Wunderground v.1.15,2013-02-11 09:50:00,
2013-02-11 05:10:00,6.2,2.1,30.13,NNW,340,0.0,12.0,83,0.00,,,0.00,Wunderground v.1.15,2013-02-11 10:10:00,
2013-02-11 05:40:00,6.5,2.2,30.12,NNW,340,0.0,12.0,82,0.00,,,0.00,Wunderground v.1.15,2013-02-11 10:40:00,
2013-02-11 06:10:00,7.1,3.8,30.11,NNW,340,0.0,12.0,86,0.00,,,0.00,Wunderground v.1.15,2013-02-11 11:10:00,
2013-02-11 06:30:00,8.5,4.9,30.12,NNW,340,0.0,12.0,85,0.00,,,0.00,Wunderground v.1.15,2013-02-11 11:30:00,
2013-02-11 06:40:00,8.5,4.4,30.11,NNW,340,0.0,12.0,83,0.00,,,0.00,Wunderground v.1.15,2013-02-11 11:40:00,
2013-02-11 07:10:00,10.8,6.9,30.10,NNW,335,0.0,12.0,84,0.00,,,0.00,Wunderground v.1.15,2013-02-11 12:10:00,
2013-02-11 07:30:00,12.5,8.0,30.11,NW,304,0.0,12.0,82,0.00,,,0.00,Wunderground v.1.15,2013-02-11 12:30:00,
2013-02-11 07:41:00,12.6,8.1,30.10,NW,304,0.0,12.0,82,0.00,,,0.00,Wunderground v.1.15,2013-02-11 12:41:00,
2013-02-11 08:20:00,17.3,11.9,30.08,NW,304,0.0,12.0,79,0.00,,,0.00,Wunderground v.1.15,2013-02-11 13:20:00,
2013-02-11 08:31:00,20.0,16.2,30.07,NW,305,0.0,12.0,85,0.00,,,0.00,Wunderground v.1.15,2013-02-11 13:31:00,
2013-02-11 08:40:00,22.2,17.3,30.07,NW,305,0.0,12.0,81,0.00,,,0.00,Wunderground v.1.15,2013-02-11 13:40:00,
2013-02-11 08:50:00,22.3,15.9,30.06,NW,305,0.0,12.0,76,0.00,,,0.00,Wunderground v.1.15,2013-02-11 13:50:00,
2013-02-11 09:10:00,24.3,18.4,30.06,NW,305,0.0,12.0,78,0.00,,,0.00,Wunderground v.1.15,2013-02-11 14:10:00,
2013-02-11 09:20:00,25.1,17.7,30.05,NW,305,0.0,12.0,73,0.00,,,0.00,Wunderground v.1.15,2013-02-11 14:20:00,
2013-02-11 09:40:00,28.5,22.2,30.03,NW,305,0.0,12.0,77,0.00,,,0.00,Wunderground v.1.15,2013-02-11 14:40:00,
2013-02-11 09:50:00,30.4,24.4,30.03,NW,305,0.0,12.0,78,0.00,,,0.00,Wunderground v.1.15,2013-02-11 14:50:00,
2013-02-11 10:10:00,32.7,26.0,30.01,NW,305,0.0,12.0,76,0.00,,,0.00,Wunderground v.1.15,2013-02-11 15:10:00,
2013-02-11 10:20:00,33.5,26.4,30.01,NW,305,0.0,12.0,75,0.00,,,0.00,Wunderground v.1.15,2013-02-11 15:20:00,
2013-02-11 10:31:00,33.8,26.4,30.01,NW,305,0.0,12.0,74,0.00,,,0.00,Wunderground v.1.15,2013-02-11 15:31:00,
2013-02-11 10:40:00,33.9,26.8,30.00,NW,304,0.0,12.0,75,0.00,,,0.00,Wunderground v.1.15,2013-02-11 15:40:00,
2013-02-11 10:50:00,34.2,27.1,30.00,NW,305,0.0,12.0,75,0.00,,,0.00,Wunderground v.1.15,2013-02-11 15:50:00,
2013-02-11 11:10:00,35.1,28.0,29.98,NW,305,0.0,12.0,75,0.00,,,0.00,Wunderground v.1.15,2013-02-11 16:10:00,
2013-02-11 11:20:00,36.0,28.2,29.97,NW,305,0.0,12.0,73,0.00,,,0.00,Wunderground v.1.15,2013-02-11 16:20:00,
2013-02-11 11:40:00,37.2,29.3,29.94,West,270,0.0,12.0,73,0.00,,,0.00,Wunderground v.1.15,2013-02-11 16:40:00,
2013-02-11 11:50:00,37.5,29.6,29.93,West,271,0.0,12.0,73,0.00,,,0.00,Wunderground v.1.15,2013-02-11 16:50:00,
2013-02-11 12:20:00,37.6,31.7,29.91,West,278,1.0,12.0,79,0.00,,,0.00,Wunderground v.1.15,2013-02-11 17:20:00,
2013-02-11 12:41:00,36.8,32.7,29.89,West,271,1.0,1.0,85,0.00,,,0.00,Wunderground v.1.15,2013-02-11 17:41:00,
2013-02-11 12:50:00,36.4,32.9,29.88,WNW,287,0.0,12.0,87,0.00,,,0.00,Wunderground v.1.15,2013-02-11 17:50:00,
2013-02-11 13:10:00,35.8,33.2,29.86,West,262,0.0,12.0,90,0.11,,,0.03,Wunderground v.1.15,2013-02-11 18:10:00,
2013-02-11 13:50:00,35.8,34.2,29.83,WNW,295,1.0,1.0,94,0.12,,,0.11,Wunderground v.1.15,2013-02-11 18:50:00,
2013-02-11 14:21:00,36.7,35.4,29.79,SW,221,2.0,12.0,95,0.05,,,0.14,Wunderground v.1.15,2013-02-11 19:21:00,
2013-02-11 14:30:00,36.8,35.5,29.79,WSW,253,1.0,12.0,95,0.08,,,0.15,Wunderground v.1.15,2013-02-11 19:30:00,
2013-02-11 14:41:00,36.9,35.9,29.77,WSW,246,2.0,12.0,96,0.15,,,0.18,Wunderground v.1.15,2013-02-11 19:41:00,
2013-02-11 15:10:00,37.6,36.6,29.74,SSW,203,1.0,12.0,96,0.09,,,0.25,Wunderground v.1.15,2013-02-11 20:10:00,
2013-02-11 15:30:00,37.9,36.9,29.72,West,277,2.0,2.0,96,0.20,,,0.31,Wunderground v.1.15,2013-02-11 20:30:00,
2013-02-11 15:40:00,38.1,37.1,29.71,SSW,208,1.0,12.0,96,0.14,,,0.34,Wunderground v.1.15,2013-02-11 20:40:00,
2013-02-11 15:50:00,38.1,37.1,29.70,SSW,205,1.0,12.0,96,0.21,,,0.37,Wunderground v.1.15,2013-02-11 20:50:00,
2013-02-11 16:20:00,38.1,37.1,29.69,ESE,102,0.0,12.0,96,0.16,,,0.46,Wunderground v.1.15,2013-02-11 21:20:00,
2013-02-11 16:50:00,38.6,37.8,29.66,SSW,199,0.0,12.0,97,0.14,,,0.54,Wunderground v.1.15,2013-02-11 21:50:00,
2013-02-11 17:21:00,39.1,38.3,29.61,South,184,1.0,12.0,97,0.04,,,0.58,Wunderground v.1.15,2013-02-11 22:21:00,
2013-02-11 17:51:00,39.8,39.0,29.59,SW,226,0.0,12.0,97,0.05,,,0.61,Wunderground v.1.15,2013-02-11 22:51:00,
2013-02-11 18:31:00,39.3,38.5,29.57,SW,226,0.0,12.0,97,0.07,,,0.67,Wunderground v.1.15,2013-02-11 23:31:00,
2013-02-11 19:10:00,39.5,39.0,29.54,SW,226,0.0,12.0,98,0.00,,,0.69,Wunderground v.1.15,2013-02-12 00:10:00,
2013-02-11 19:30:00,39.8,39.3,29.53,SW,226,0.0,12.0,98,0.00,,,0.70,Wunderground v.1.15,2013-02-12 00:30:00,
2013-02-11 19:40:00,39.7,39.2,29.52,SW,226,0.0,12.0,98,0.00,,,0.70,Wunderground v.1.15,2013-02-12 00:40:00,
2013-02-11 19:50:00,39.6,39.1,29.51,SW,226,0.0,12.0,98,0.00,,,0.70,Wunderground v.1.15,2013-02-12 00:50:00,
2013-02-11 20:50:00,39.6,39.1,29.49,SW,226,0.0,12.0,98,0.00,,,0.70,Wunderground v.1.15,2013-02-12 01:50:00,
2013-02-11 21:20:00,39.7,39.2,29.47,NNW,335,0.0,12.0,98,0.00,,,0.70,Wunderground v.1.15,2013-02-12 02:20:00,
2013-02-11 21:30:00,39.3,38.8,29.47,NNW,334,0.0,12.0,98,0.00,,,0.70,Wunderground v.1.15,2013-02-12 02:30:00,
2013-02-11 21:40:00,38.9,38.4,29.47,NNW,335,0.0,12.0,98,0.00,,,0.70,Wunderground v.1.15,2013-02-12 02:40:00,
2013-02-11 22:50:00,38.1,37.6,29.46,NNW,346,2.0,2.0,98,0.00,,,0.70,Wunderground v.1.15,2013-02-12 03:50:00,
2013-02-11 23:50:00,36.0,35.2,29.43,NNE,18,1.0,12.0,97,0.00,,,0.70,Wunderground v.1.15,2013-02-12 04:50:00,